sensor_id;sensor_type;location;lat;lon;timestamp;P1;durP1;ratioP1;P2;durP2;ratioP2
4057;SDS011;2044;48.692;9.020;2022-07-23T00:00:57;6.50;;;5.57;;
4057;SDS011;2044;48.692;9.020;2022-07-23T00:03:24;9.00;;;6.30;;
4057;SDS011;2044;48.692;9.020;2022-07-23T00:05:51;7.13;;;5.60;;
4057;SDS011;2044;48.692;9.020;2022-07-23T00:08:19;6.70;;;6.00;;
4057;SDS011;2044;48.692;9.020;2022-07-23T00:10:46;6.03;;;5.53;;
4057;SDS011;2044;48.692;9.020;2022-07-23T00:13:12;5.90;;;5.40;;
4057;SDS011;2044;48.692;9.020;2022-07-23T00:15:39;6.47;;;5.87;;
4057;SDS011;2044;48.692;9.020;2022-07-23T00:18:06;5.03;;;4.53;;
4057;SDS011;2044;48.692;9.020;2022-07-23T00:20:33;5.07;;;4.63;;
4057;SDS011;2044;48.692;9.020;2022-07-23T00:22:59;5.40;;;4.90;;
4057;SDS011;2044;48.692;9.020;2022-07-23T00:25:27;7.33;;;5.20;;
4057;SDS011;2044;48.692;9.020;2022-07-23T00:27:54;5.47;;;4.97;;
4057;SDS011;2044;48.692;9.020;2022-07-23T00:30:21;8.10;;;4.93;;
4057;SDS011;2044;48.692;9.020;2022-07-23T00:32:48;6.03;;;5.27;;
4057;SDS011;2044;48.692;9.020;2022-07-23T00:35:18;5.10;;;4.60;;
4057;SDS011;2044;48.692;9.020;2022-07-23T00:37:46;6.37;;;5.03;;
4057;SDS011;2044;48.692;9.020;2022-07-23T00:40:13;5.57;;;5.07;;
4057;SDS011;2044;48.692;9.020;2022-07-23T00:42:42;5.10;;;4.67;;
4057;SDS011;2044;48.692;9.020;2022-07-23T00:45:09;6.20;;;5.10;;
4057;SDS011;2044;48.692;9.020;2022-07-23T00:47:36;5.90;;;5.20;;
4057;SDS011;2044;48.692;9.020;2022-07-23T00:50:03;5.60;;;5.10;;
4057;SDS011;2044;48.692;9.020;2022-07-23T00:52:31;6.53;;;5.23;;
4057;SDS011;2044;48.692;9.020;2022-07-23T00:54:58;5.90;;;5.30;;
4057;SDS011;2044;48.692;9.020;2022-07-23T00:57:25;6.07;;;5.10;;
4057;SDS011;2044;48.692;9.020;2022-07-23T00:59:53;5.10;;;4.47;;
4057;SDS011;2044;48.692;9.020;2022-07-23T01:02:21;5.50;;;4.90;;
4057;SDS011;2044;48.692;9.020;2022-07-23T01:04:47;5.80;;;4.73;;
4057;SDS011;2044;48.692;9.020;2022-07-23T01:07:14;4.57;;;4.17;;
4057;SDS011;2044;48.692;9.020;2022-07-23T01:09:42;5.20;;;4.70;;
4057;SDS011;2044;48.692;9.020;2022-07-23T01:12:10;6.50;;;4.70;;
4057;SDS011;2044;48.692;9.020;2022-07-23T01:14:36;6.53;;;4.37;;
4057;SDS011;2044;48.692;9.020;2022-07-23T01:17:04;6.60;;;5.13;;
4057;SDS011;2044;48.692;9.020;2022-07-23T01:19:31;5.27;;;4.37;;
4057;SDS011;2044;48.692;9.020;2022-07-23T01:21:58;6.37;;;4.90;;
4057;SDS011;2044;48.692;9.020;2022-07-23T01:24:30;5.20;;;4.70;;
4057;SDS011;2044;48.692;9.020;2022-07-23T01:26:57;5.43;;;4.50;;
4057;SDS011;2044;48.692;9.020;2022-07-23T01:29:23;5.10;;;4.60;;
4057;SDS011;2044;48.692;9.020;2022-07-23T01:31:50;5.30;;;4.80;;
4057;SDS011;2044;48.692;9.020;2022-07-23T01:34:17;5.87;;;4.33;;
4057;SDS011;2044;48.692;9.020;2022-07-23T01:36:44;7.27;;;5.57;;
4057;SDS011;2044;48.692;9.020;2022-07-23T01:39:12;5.93;;;5.00;;
4057;SDS011;2044;48.692;9.020;2022-07-23T01:41:40;5.60;;;5.00;;
4057;SDS011;2044;48.692;9.020;2022-07-23T01:44:06;5.67;;;4.80;;
4057;SDS011;2044;48.692;9.020;2022-07-23T01:46:33;5.60;;;4.67;;
4057;SDS011;2044;48.692;9.020;2022-07-23T01:49:00;5.77;;;4.80;;
4057;SDS011;2044;48.692;9.020;2022-07-23T01:51:27;5.80;;;4.87;;
4057;SDS011;2044;48.692;9.020;2022-07-23T01:53:53;6.50;;;4.80;;
4057;SDS011;2044;48.692;9.020;2022-07-23T01:56:20;5.50;;;4.70;;
4057;SDS011;2044;48.692;9.020;2022-07-23T01:58:48;5.20;;;4.70;;
4057;SDS011;2044;48.692;9.020;2022-07-23T02:01:15;5.57;;;4.97;;
4057;SDS011;2044;48.692;9.020;2022-07-23T02:03:42;5.30;;;4.80;;
4057;SDS011;2044;48.692;9.020;2022-07-23T02:06:08;6.00;;;5.20;;
4057;SDS011;2044;48.692;9.020;2022-07-23T02:08:35;5.07;;;4.57;;
4057;SDS011;2044;48.692;9.020;2022-07-23T02:11:02;6.40;;;4.90;;
4057;SDS011;2044;48.692;9.020;2022-07-23T02:13:28;6.60;;;4.73;;
4057;SDS011;2044;48.692;9.020;2022-07-23T02:15:56;5.37;;;4.80;;
4057;SDS011;2044;48.692;9.020;2022-07-23T02:18:23;7.80;;;4.70;;
4057;SDS011;2044;48.692;9.020;2022-07-23T02:20:50;5.57;;;4.60;;
4057;SDS011;2044;48.692;9.020;2022-07-23T02:23:16;5.57;;;4.43;;
4057;SDS011;2044;48.692;9.020;2022-07-23T02:25:43;5.60;;;4.80;;
4057;SDS011;2044;48.692;9.020;2022-07-23T02:28:10;6.90;;;5.20;;
4057;SDS011;2044;48.692;9.020;2022-07-23T02:30:37;8.50;;;4.27;;
4057;SDS011;2044;48.692;9.020;2022-07-23T02:33:05;6.73;;;4.97;;
4057;SDS011;2044;48.692;9.020;2022-07-23T02:35:32;5.13;;;4.60;;
4057;SDS011;2044;48.692;9.020;2022-07-23T02:37:59;5.80;;;4.87;;
4057;SDS011;2044;48.692;9.020;2022-07-23T02:40:25;5.60;;;5.00;;
4057;SDS011;2044;48.692;9.020;2022-07-23T02:42:52;6.70;;;5.13;;
4057;SDS011;2044;48.692;9.020;2022-07-23T02:45:19;5.70;;;4.80;;
4057;SDS011;2044;48.692;9.020;2022-07-23T02:47:46;5.37;;;4.73;;
4057;SDS011;2044;48.692;9.020;2022-07-23T02:50:14;6.93;;;5.33;;
4057;SDS011;2044;48.692;9.020;2022-07-23T02:52:40;6.60;;;5.10;;
4057;SDS011;2044;48.692;9.020;2022-07-23T02:55:07;6.10;;;5.50;;
4057;SDS011;2044;48.692;9.020;2022-07-23T02:57:34;5.50;;;4.97;;
4057;SDS011;2044;48.692;9.020;2022-07-23T03:00:01;6.50;;;5.67;;
4057;SDS011;2044;48.692;9.020;2022-07-23T03:02:28;8.33;;;4.80;;
4057;SDS011;2044;48.692;9.020;2022-07-23T03:04:55;8.27;;;5.90;;
4057;SDS011;2044;48.692;9.020;2022-07-23T03:07:23;7.00;;;5.23;;
4057;SDS011;2044;48.692;9.020;2022-07-23T03:09:50;6.03;;;5.17;;
4057;SDS011;2044;48.692;9.020;2022-07-23T03:12:16;6.03;;;4.90;;
4057;SDS011;2044;48.692;9.020;2022-07-23T03:14:43;7.20;;;5.50;;
4057;SDS011;2044;48.692;9.020;2022-07-23T03:17:10;6.30;;;5.50;;
4057;SDS011;2044;48.692;9.020;2022-07-23T03:19:36;6.83;;;5.97;;
4057;SDS011;2044;48.692;9.020;2022-07-23T03:22:03;6.33;;;5.63;;
4057;SDS011;2044;48.692;9.020;2022-07-23T03:24:32;7.20;;;5.90;;
4057;SDS011;2044;48.692;9.020;2022-07-23T03:27:12;5.60;;;5.10;;
4057;SDS011;2044;48.692;9.020;2022-07-23T03:29:39;5.50;;;5.00;;
4057;SDS011;2044;48.692;9.020;2022-07-23T03:32:06;6.00;;;5.30;;
4057;SDS011;2044;48.692;9.020;2022-07-23T03:34:32;7.27;;;5.70;;
4057;SDS011;2044;48.692;9.020;2022-07-23T03:36:59;6.23;;;5.63;;
4057;SDS011;2044;48.692;9.020;2022-07-23T03:39:26;5.83;;;4.90;;
4057;SDS011;2044;48.692;9.020;2022-07-23T03:41:54;6.63;;;6.03;;
4057;SDS011;2044;48.692;9.020;2022-07-23T03:44:21;6.53;;;5.80;;
4057;SDS011;2044;48.692;9.020;2022-07-23T03:46:48;7.07;;;6.00;;
4057;SDS011;2044;48.692;9.020;2022-07-23T03:49:14;7.10;;;6.17;;
4057;SDS011;2044;48.692;9.020;2022-07-23T03:51:41;8.73;;;5.70;;
4057;SDS011;2044;48.692;9.020;2022-07-23T03:54:08;9.30;;;6.20;;
4057;SDS011;2044;48.692;9.020;2022-07-23T03:56:35;6.47;;;5.50;;
4057;SDS011;2044;48.692;9.020;2022-07-23T03:59:03;6.70;;;5.90;;
4057;SDS011;2044;48.692;9.020;2022-07-23T04:01:30;6.90;;;6.03;;
4057;SDS011;2044;48.692;9.020;2022-07-23T04:03:56;6.43;;;5.73;;
4057;SDS011;2044;48.692;9.020;2022-07-23T04:06:24;6.80;;;5.93;;
4057;SDS011;2044;48.692;9.020;2022-07-23T04:08:50;8.07;;;5.67;;
4057;SDS011;2044;48.692;9.020;2022-07-23T04:11:17;7.77;;;5.80;;
4057;SDS011;2044;48.692;9.020;2022-07-23T04:13:44;8.00;;;5.80;;
4057;SDS011;2044;48.692;9.020;2022-07-23T04:16:12;6.87;;;5.77;;
4057;SDS011;2044;48.692;9.020;2022-07-23T04:18:38;6.23;;;5.63;;
4057;SDS011;2044;48.692;9.020;2022-07-23T04:21:05;7.80;;;5.77;;
4057;SDS011;2044;48.692;9.020;2022-07-23T04:23:32;8.00;;;6.13;;
4057;SDS011;2044;48.692;9.020;2022-07-23T04:25:59;7.03;;;6.20;;
4057;SDS011;2044;48.692;9.020;2022-07-23T04:28:25;6.50;;;5.80;;
4057;SDS011;2044;48.692;9.020;2022-07-23T04:30:52;7.63;;;6.03;;
4057;SDS011;2044;48.692;9.020;2022-07-23T04:33:23;6.60;;;5.80;;
4057;SDS011;2044;48.692;9.020;2022-07-23T04:35:50;7.53;;;5.77;;
4057;SDS011;2044;48.692;9.020;2022-07-23T04:38:17;6.47;;;5.87;;
4057;SDS011;2044;48.692;9.020;2022-07-23T04:40:44;6.80;;;6.10;;
4057;SDS011;2044;48.692;9.020;2022-07-23T04:43:10;8.07;;;5.27;;
4057;SDS011;2044;48.692;9.020;2022-07-23T04:45:37;6.30;;;5.70;;
4057;SDS011;2044;48.692;9.020;2022-07-23T04:48:04;6.60;;;5.90;;
4057;SDS011;2044;48.692;9.020;2022-07-23T04:50:32;5.97;;;5.30;;
4057;SDS011;2044;48.692;9.020;2022-07-23T04:52:59;7.10;;;6.13;;
4057;SDS011;2044;48.692;9.020;2022-07-23T04:55:25;6.00;;;5.40;;
4057;SDS011;2044;48.692;9.020;2022-07-23T04:57:52;7.03;;;5.93;;
4057;SDS011;2044;48.692;9.020;2022-07-23T05:00:19;6.03;;;5.43;;
4057;SDS011;2044;48.692;9.020;2022-07-23T05:02:46;7.40;;;5.70;;
4057;SDS011;2044;48.692;9.020;2022-07-23T05:05:13;10.47;;;6.37;;
4057;SDS011;2044;48.692;9.020;2022-07-23T05:07:41;6.20;;;5.60;;
4057;SDS011;2044;48.692;9.020;2022-07-23T05:10:08;6.50;;;5.70;;
4057;SDS011;2044;48.692;9.020;2022-07-23T05:12:34;6.27;;;5.67;;
4057;SDS011;2044;48.692;9.020;2022-07-23T05:15:01;6.83;;;6.13;;
4057;SDS011;2044;48.692;9.020;2022-07-23T05:17:28;6.43;;;5.43;;
4057;SDS011;2044;48.692;9.020;2022-07-23T05:19:55;5.80;;;5.30;;
4057;SDS011;2044;48.692;9.020;2022-07-23T05:22:21;6.77;;;5.67;;
4057;SDS011;2044;48.692;9.020;2022-07-23T05:24:50;6.70;;;6.00;;
4057;SDS011;2044;48.692;9.020;2022-07-23T05:27:16;6.87;;;5.87;;
4057;SDS011;2044;48.692;9.020;2022-07-23T05:29:43;7.50;;;6.30;;
4057;SDS011;2044;48.692;9.020;2022-07-23T05:32:10;7.10;;;5.60;;
4057;SDS011;2044;48.692;9.020;2022-07-23T05:34:36;6.93;;;6.20;;
4057;SDS011;2044;48.692;9.020;2022-07-23T05:37:03;5.80;;;5.27;;
4057;SDS011;2044;48.692;9.020;2022-07-23T05:39:30;6.53;;;5.93;;
4057;SDS011;2044;48.692;9.020;2022-07-23T05:41:58;6.87;;;6.27;;
4057;SDS011;2044;48.692;9.020;2022-07-23T05:44:24;7.13;;;6.43;;
4057;SDS011;2044;48.692;9.020;2022-07-23T05:46:52;8.00;;;6.83;;
4057;SDS011;2044;48.692;9.020;2022-07-23T05:49:19;7.10;;;6.43;;
4057;SDS011;2044;48.692;9.020;2022-07-23T05:51:45;7.50;;;6.80;;
4057;SDS011;2044;48.692;9.020;2022-07-23T05:54:12;7.50;;;6.70;;
4057;SDS011;2044;48.692;9.020;2022-07-23T05:56:39;7.97;;;6.90;;
4057;SDS011;2044;48.692;9.020;2022-07-23T05:59:07;7.17;;;6.57;;
4057;SDS011;2044;48.692;9.020;2022-07-23T06:01:34;6.67;;;6.07;;
4057;SDS011;2044;48.692;9.020;2022-07-23T06:04:00;7.90;;;7.10;;
4057;SDS011;2044;48.692;9.020;2022-07-23T06:06:27;7.13;;;6.30;;
4057;SDS011;2044;48.692;9.020;2022-07-23T06:08:54;8.13;;;7.23;;
4057;SDS011;2044;48.692;9.020;2022-07-23T06:11:20;8.60;;;7.70;;
4057;SDS011;2044;48.692;9.020;2022-07-23T06:13:47;9.13;;;8.30;;
4057;SDS011;2044;48.692;9.020;2022-07-23T06:16:15;9.30;;;8.13;;
4057;SDS011;2044;48.692;9.020;2022-07-23T06:18:42;8.73;;;7.83;;
4057;SDS011;2044;48.692;9.020;2022-07-23T06:21:09;8.43;;;7.63;;
4057;SDS011;2044;48.692;9.020;2022-07-23T06:23:35;9.87;;;8.97;;
4057;SDS011;2044;48.692;9.020;2022-07-23T06:26:02;10.07;;;9.20;;
4057;SDS011;2044;48.692;9.020;2022-07-23T06:28:29;10.23;;;9.23;;
4057;SDS011;2044;48.692;9.020;2022-07-23T06:30:55;10.20;;;9.20;;
4057;SDS011;2044;48.692;9.020;2022-07-23T06:33:23;9.37;;;8.47;;
4057;SDS011;2044;48.692;9.020;2022-07-23T06:35:50;9.97;;;9.07;;
4057;SDS011;2044;48.692;9.020;2022-07-23T06:38:17;10.53;;;9.53;;
4057;SDS011;2044;48.692;9.020;2022-07-23T06:40:43;8.97;;;8.27;;
4057;SDS011;2044;48.692;9.020;2022-07-23T06:43:10;10.20;;;9.27;;
4057;SDS011;2044;48.692;9.020;2022-07-23T06:45:37;9.67;;;8.87;;
4057;SDS011;2044;48.692;9.020;2022-07-23T06:48:04;9.07;;;8.23;;
4057;SDS011;2044;48.692;9.020;2022-07-23T06:50:35;10.60;;;8.00;;
4057;SDS011;2044;48.692;9.020;2022-07-23T06:53:07;8.50;;;7.90;;
4057;SDS011;2044;48.692;9.020;2022-07-23T06:55:35;9.03;;;8.13;;
4057;SDS011;2044;48.692;9.020;2022-07-23T06:58:03;8.63;;;7.93;;
4057;SDS011;2044;48.692;9.020;2022-07-23T07:00:30;9.60;;;8.60;;
4057;SDS011;2044;48.692;9.020;2022-07-23T07:02:57;9.77;;;7.63;;
4057;SDS011;2044;48.692;9.020;2022-07-23T07:05:25;9.00;;;8.30;;
4057;SDS011;2044;48.692;9.020;2022-07-23T07:07:53;11.07;;;8.43;;
4057;SDS011;2044;48.692;9.020;2022-07-23T07:10:20;8.70;;;8.00;;
4057;SDS011;2044;48.692;9.020;2022-07-23T07:12:47;9.30;;;7.80;;
4057;SDS011;2044;48.692;9.020;2022-07-23T07:15:14;8.40;;;7.60;;
4057;SDS011;2044;48.692;9.020;2022-07-23T07:17:41;8.13;;;7.40;;
4057;SDS011;2044;48.692;9.020;2022-07-23T07:20:09;8.63;;;7.93;;
4057;SDS011;2044;48.692;9.020;2022-07-23T07:22:36;9.10;;;7.90;;
4057;SDS011;2044;48.692;9.020;2022-07-23T07:25:04;9.23;;;8.47;;
4057;SDS011;2044;48.692;9.020;2022-07-23T07:27:32;8.97;;;8.07;;
4057;SDS011;2044;48.692;9.020;2022-07-23T07:29:59;9.17;;;8.37;;
4057;SDS011;2044;48.692;9.020;2022-07-23T07:32:25;9.23;;;8.53;;
4057;SDS011;2044;48.692;9.020;2022-07-23T07:34:52;9.03;;;8.33;;
4057;SDS011;2044;48.692;9.020;2022-07-23T07:37:19;10.17;;;9.30;;
4057;SDS011;2044;48.692;9.020;2022-07-23T07:39:45;10.27;;;9.57;;
4057;SDS011;2044;48.692;9.020;2022-07-23T07:42:13;11.17;;;10.37;;
4057;SDS011;2044;48.692;9.020;2022-07-23T07:44:40;12.00;;;11.20;;
4057;SDS011;2044;48.692;9.020;2022-07-23T07:47:07;12.87;;;12.00;;
4057;SDS011;2044;48.692;9.020;2022-07-23T07:49:33;13.63;;;12.73;;
4057;SDS011;2044;48.692;9.020;2022-07-23T07:52:00;13.33;;;12.43;;
4057;SDS011;2044;48.692;9.020;2022-07-23T07:54:27;13.00;;;12.20;;
4057;SDS011;2044;48.692;9.020;2022-07-23T07:56:57;12.47;;;11.77;;
4057;SDS011;2044;48.692;9.020;2022-07-23T07:59:25;12.00;;;11.30;;
4057;SDS011;2044;48.692;9.020;2022-07-23T08:01:52;13.67;;;12.60;;
4057;SDS011;2044;48.692;9.020;2022-07-23T08:04:18;13.27;;;12.43;;
4057;SDS011;2044;48.692;9.020;2022-07-23T08:06:45;12.67;;;11.67;;
4057;SDS011;2044;48.692;9.020;2022-07-23T08:09:12;13.57;;;12.77;;
4057;SDS011;2044;48.692;9.020;2022-07-23T08:11:39;13.27;;;12.37;;
4057;SDS011;2044;48.692;9.020;2022-07-23T08:14:05;13.50;;;12.50;;
4057;SDS011;2044;48.692;9.020;2022-07-23T08:16:34;12.90;;;12.20;;
4057;SDS011;2044;48.692;9.020;2022-07-23T08:19:01;13.60;;;12.80;;
4057;SDS011;2044;48.692;9.020;2022-07-23T08:21:27;13.27;;;12.40;;
4057;SDS011;2044;48.692;9.020;2022-07-23T08:23:54;13.23;;;12.43;;
4057;SDS011;2044;48.692;9.020;2022-07-23T08:26:21;12.60;;;11.80;;
4057;SDS011;2044;48.692;9.020;2022-07-23T08:28:47;12.80;;;12.00;;
4057;SDS011;2044;48.692;9.020;2022-07-23T08:31:15;12.80;;;11.93;;
4057;SDS011;2044;48.692;9.020;2022-07-23T08:33:44;12.60;;;11.90;;
4057;SDS011;2044;48.692;9.020;2022-07-23T08:36:10;12.40;;;11.67;;
4057;SDS011;2044;48.692;9.020;2022-07-23T08:38:37;13.10;;;12.30;;
4057;SDS011;2044;48.692;9.020;2022-07-23T08:41:04;13.07;;;12.27;;
4057;SDS011;2044;48.692;9.020;2022-07-23T08:43:34;12.70;;;11.90;;
4057;SDS011;2044;48.692;9.020;2022-07-23T08:46:01;12.80;;;12.10;;
4057;SDS011;2044;48.692;9.020;2022-07-23T08:48:29;13.07;;;12.27;;
4057;SDS011;2044;48.692;9.020;2022-07-23T08:50:59;13.00;;;12.20;;
4057;SDS011;2044;48.692;9.020;2022-07-23T08:53:28;12.50;;;11.70;;
4057;SDS011;2044;48.692;9.020;2022-07-23T08:55:57;12.80;;;12.00;;
4057;SDS011;2044;48.692;9.020;2022-07-23T08:58:26;13.60;;;12.50;;
4057;SDS011;2044;48.692;9.020;2022-07-23T09:00:53;13.40;;;12.60;;
4057;SDS011;2044;48.692;9.020;2022-07-23T09:03:21;12.53;;;11.83;;
4057;SDS011;2044;48.692;9.020;2022-07-23T09:05:49;13.40;;;12.40;;
4057;SDS011;2044;48.692;9.020;2022-07-23T09:08:18;13.23;;;12.40;;
4057;SDS011;2044;48.692;9.020;2022-07-23T09:10:47;13.30;;;12.50;;
4057;SDS011;2044;48.692;9.020;2022-07-23T09:13:32;12.47;;;11.77;;
4057;SDS011;2044;48.692;9.020;2022-07-23T09:16:05;13.10;;;12.30;;
4057;SDS011;2044;48.692;9.020;2022-07-23T09:18:34;13.13;;;12.30;;
4057;SDS011;2044;48.692;9.020;2022-07-23T09:21:11;13.33;;;12.53;;
4057;SDS011;2044;48.692;9.020;2022-07-23T09:23:44;13.70;;;12.80;;
4057;SDS011;2044;48.692;9.020;2022-07-23T09:26:22;12.47;;;11.77;;
4057;SDS011;2044;48.692;9.020;2022-07-23T09:29:04;13.40;;;12.60;;
4057;SDS011;2044;48.692;9.020;2022-07-23T09:31:34;13.73;;;12.93;;
4057;SDS011;2044;48.692;9.020;2022-07-23T09:34:09;13.93;;;12.97;;
4057;SDS011;2044;48.692;9.020;2022-07-23T09:36:38;12.97;;;12.17;;
4057;SDS011;2044;48.692;9.020;2022-07-23T09:39:06;13.53;;;12.70;;
4057;SDS011;2044;48.692;9.020;2022-07-23T09:41:35;13.20;;;12.40;;
4057;SDS011;2044;48.692;9.020;2022-07-23T09:44:10;13.07;;;12.27;;
4057;SDS011;2044;48.692;9.020;2022-07-23T09:46:39;13.70;;;12.90;;
4057;SDS011;2044;48.692;9.020;2022-07-23T09:49:16;12.90;;;12.20;;
4057;SDS011;2044;48.692;9.020;2022-07-23T09:51:45;13.83;;;13.03;;
4057;SDS011;2044;48.692;9.020;2022-07-23T09:54:28;14.07;;;13.07;;
4057;SDS011;2044;48.692;9.020;2022-07-23T09:56:58;13.73;;;12.83;;
4057;SDS011;2044;48.692;9.020;2022-07-23T09:59:27;13.90;;;13.10;;
4057;SDS011;2044;48.692;9.020;2022-07-23T10:01:57;13.60;;;12.80;;
4057;SDS011;2044;48.692;9.020;2022-07-23T10:04:25;14.90;;;13.80;;
4057;SDS011;2044;48.692;9.020;2022-07-23T10:06:53;13.60;;;12.80;;
4057;SDS011;2044;48.692;9.020;2022-07-23T10:09:23;13.83;;;12.97;;
4057;SDS011;2044;48.692;9.020;2022-07-23T10:11:53;13.87;;;12.97;;
4057;SDS011;2044;48.692;9.020;2022-07-23T10:14:25;13.47;;;12.70;;
4057;SDS011;2044;48.692;9.020;2022-07-23T10:16:55;13.33;;;12.50;;
4057;SDS011;2044;48.692;9.020;2022-07-23T10:19:22;12.73;;;11.67;;
4057;SDS011;2044;48.692;9.020;2022-07-23T10:21:50;12.87;;;12.07;;
4057;SDS011;2044;48.692;9.020;2022-07-23T10:24:23;12.20;;;11.50;;
4057;SDS011;2044;48.692;9.020;2022-07-23T10:27:02;12.57;;;11.77;;
4057;SDS011;2044;48.692;9.020;2022-07-23T10:29:42;13.20;;;12.30;;
4057;SDS011;2044;48.692;9.020;2022-07-23T10:32:17;11.97;;;11.33;;
4057;SDS011;2044;48.692;9.020;2022-07-23T10:34:53;16.63;;;15.63;;
4057;SDS011;2044;48.692;9.020;2022-07-23T10:37:31;17.07;;;15.97;;
4057;SDS011;2044;48.692;9.020;2022-07-23T10:40:08;12.80;;;12.07;;
4057;SDS011;2044;48.692;9.020;2022-07-23T10:42:37;12.43;;;11.63;;
4057;SDS011;2044;48.692;9.020;2022-07-23T10:45:25;13.13;;;12.13;;
4057;SDS011;2044;48.692;9.020;2022-07-23T10:47:54;17.00;;;15.80;;
4057;SDS011;2044;48.692;9.020;2022-07-23T10:50:23;13.20;;;12.30;;
4057;SDS011;2044;48.692;9.020;2022-07-23T10:53:08;13.13;;;12.40;;
4057;SDS011;2044;48.692;9.020;2022-07-23T10:55:48;12.53;;;11.83;;
4057;SDS011;2044;48.692;9.020;2022-07-23T10:58:21;12.40;;;11.60;;
4057;SDS011;2044;48.692;9.020;2022-07-23T11:04:01;12.20;;;11.50;;
4057;SDS011;2044;48.692;9.020;2022-07-23T11:09:38;12.17;;;11.47;;
4057;SDS011;2044;48.692;9.020;2022-07-23T11:15:02;13.07;;;12.27;;
4057;SDS011;2044;48.692;9.020;2022-07-23T11:17:31;12.77;;;12.07;;
4057;SDS011;2044;48.692;9.020;2022-07-23T11:20:12;12.33;;;11.63;;
4057;SDS011;2044;48.692;9.020;2022-07-23T11:22:46;12.27;;;11.57;;
4057;SDS011;2044;48.692;9.020;2022-07-23T11:25:28;11.80;;;11.10;;
4057;SDS011;2044;48.692;9.020;2022-07-23T11:28:09;12.23;;;11.53;;
4057;SDS011;2044;48.692;9.020;2022-07-23T11:30:39;12.20;;;11.40;;
4057;SDS011;2044;48.692;9.020;2022-07-23T11:33:17;13.07;;;12.27;;
4057;SDS011;2044;48.692;9.020;2022-07-23T11:35:46;12.70;;;12.00;;
4057;SDS011;2044;48.692;9.020;2022-07-23T11:38:15;13.00;;;12.17;;
4057;SDS011;2044;48.692;9.020;2022-07-23T11:40:44;13.63;;;12.73;;
4057;SDS011;2044;48.692;9.020;2022-07-23T11:43:12;14.00;;;13.17;;
4057;SDS011;2044;48.692;9.020;2022-07-23T11:45:42;13.07;;;12.27;;
4057;SDS011;2044;48.692;9.020;2022-07-23T11:48:15;11.93;;;11.30;;
4057;SDS011;2044;48.692;9.020;2022-07-23T11:50:43;12.20;;;11.50;;
4057;SDS011;2044;48.692;9.020;2022-07-23T11:53:10;12.70;;;11.90;;
4057;SDS011;2044;48.692;9.020;2022-07-23T11:55:37;13.47;;;12.47;;
4057;SDS011;2044;48.692;9.020;2022-07-23T11:58:03;12.90;;;12.20;;
4057;SDS011;2044;48.692;9.020;2022-07-23T12:00:31;13.87;;;12.97;;
4057;SDS011;2044;48.692;9.020;2022-07-23T12:03:00;13.53;;;12.63;;
4057;SDS011;2044;48.692;9.020;2022-07-23T12:05:28;11.33;;;10.73;;
4057;SDS011;2044;48.692;9.020;2022-07-23T12:07:57;11.70;;;11.10;;
4057;SDS011;2044;48.692;9.020;2022-07-23T12:10:25;12.53;;;11.83;;
4057;SDS011;2044;48.692;9.020;2022-07-23T12:12:54;12.13;;;11.43;;
4057;SDS011;2044;48.692;9.020;2022-07-23T12:15:24;12.80;;;12.00;;
4057;SDS011;2044;48.692;9.020;2022-07-23T12:17:52;11.67;;;11.07;;
4057;SDS011;2044;48.692;9.020;2022-07-23T12:20:22;13.03;;;11.97;;
4057;SDS011;2044;48.692;9.020;2022-07-23T12:22:52;12.50;;;11.80;;
4057;SDS011;2044;48.692;9.020;2022-07-23T12:25:22;11.80;;;11.13;;
4057;SDS011;2044;48.692;9.020;2022-07-23T12:27:58;11.73;;;11.03;;
4057;SDS011;2044;48.692;9.020;2022-07-23T12:30:27;12.63;;;11.83;;
4057;SDS011;2044;48.692;9.020;2022-07-23T12:32:56;12.27;;;11.57;;
4057;SDS011;2044;48.692;9.020;2022-07-23T12:35:30;12.10;;;11.40;;
4057;SDS011;2044;48.692;9.020;2022-07-23T12:38:00;11.80;;;11.17;;
4057;SDS011;2044;48.692;9.020;2022-07-23T12:40:29;11.70;;;11.00;;
4057;SDS011;2044;48.692;9.020;2022-07-23T12:42:58;12.03;;;11.33;;
4057;SDS011;2044;48.692;9.020;2022-07-23T12:45:26;12.70;;;11.90;;
4057;SDS011;2044;48.692;9.020;2022-07-23T12:50:41;12.00;;;11.20;;
4057;SDS011;2044;48.692;9.020;2022-07-23T12:53:10;11.47;;;10.77;;
4057;SDS011;2044;48.692;9.020;2022-07-23T12:55:39;12.50;;;11.70;;
4057;SDS011;2044;48.692;9.020;2022-07-23T12:58:13;12.27;;;11.47;;
4057;SDS011;2044;48.692;9.020;2022-07-23T13:00:55;11.93;;;11.23;;
4057;SDS011;2044;48.692;9.020;2022-07-23T13:03:25;12.30;;;11.40;;
4057;SDS011;2044;48.692;9.020;2022-07-23T13:05:55;12.20;;;11.30;;
4057;SDS011;2044;48.692;9.020;2022-07-23T13:08:22;12.00;;;11.30;;
4057;SDS011;2044;48.692;9.020;2022-07-23T13:10:50;11.70;;;11.00;;
4057;SDS011;2044;48.692;9.020;2022-07-23T13:13:19;11.77;;;11.17;;
4057;SDS011;2044;48.692;9.020;2022-07-23T13:15:47;11.83;;;11.03;;
4057;SDS011;2044;48.692;9.020;2022-07-23T13:18:14;11.60;;;11.00;;
4057;SDS011;2044;48.692;9.020;2022-07-23T13:20:41;12.63;;;11.80;;
4057;SDS011;2044;48.692;9.020;2022-07-23T13:23:11;11.97;;;11.23;;
4057;SDS011;2044;48.692;9.020;2022-07-23T13:25:37;12.20;;;11.50;;
4057;SDS011;2044;48.692;9.020;2022-07-23T13:28:04;11.43;;;10.73;;
4057;SDS011;2044;48.692;9.020;2022-07-23T13:30:31;12.20;;;11.40;;
4057;SDS011;2044;48.692;9.020;2022-07-23T13:32:58;11.87;;;11.03;;
4057;SDS011;2044;48.692;9.020;2022-07-23T13:35:25;12.60;;;11.80;;
4057;SDS011;2044;48.692;9.020;2022-07-23T13:37:51;12.77;;;11.97;;
4057;SDS011;2044;48.692;9.020;2022-07-23T13:40:19;12.83;;;12.03;;
4057;SDS011;2044;48.692;9.020;2022-07-23T13:42:46;11.43;;;10.63;;
4057;SDS011;2044;48.692;9.020;2022-07-23T13:45:13;12.13;;;11.33;;
4057;SDS011;2044;48.692;9.020;2022-07-23T13:47:40;12.73;;;11.73;;
4057;SDS011;2044;48.692;9.020;2022-07-23T13:50:07;12.77;;;11.87;;
4057;SDS011;2044;48.692;9.020;2022-07-23T13:52:34;12.27;;;11.47;;
4057;SDS011;2044;48.692;9.020;2022-07-23T13:55:01;11.90;;;11.10;;
4057;SDS011;2044;48.692;9.020;2022-07-23T13:57:31;12.60;;;11.80;;
4057;SDS011;2044;48.692;9.020;2022-07-23T13:59:58;12.93;;;12.00;;
4057;SDS011;2044;48.692;9.020;2022-07-23T14:02:25;12.90;;;12.00;;
4057;SDS011;2044;48.692;9.020;2022-07-23T14:04:52;12.73;;;11.87;;
4057;SDS011;2044;48.692;9.020;2022-07-23T14:07:19;12.90;;;12.10;;
4057;SDS011;2044;48.692;9.020;2022-07-23T14:09:46;13.83;;;12.73;;
4057;SDS011;2044;48.692;9.020;2022-07-23T14:12:13;12.73;;;11.93;;
4057;SDS011;2044;48.692;9.020;2022-07-23T14:14:41;12.87;;;11.87;;
4057;SDS011;2044;48.692;9.020;2022-07-23T14:17:08;12.20;;;11.50;;
4057;SDS011;2044;48.692;9.020;2022-07-23T14:19:35;12.20;;;11.30;;
4057;SDS011;2044;48.692;9.020;2022-07-23T14:22:01;12.00;;;11.30;;
4057;SDS011;2044;48.692;9.020;2022-07-23T14:24:28;12.80;;;11.90;;
4057;SDS011;2044;48.692;9.020;2022-07-23T14:26:55;12.87;;;11.87;;
4057;SDS011;2044;48.692;9.020;2022-07-23T14:29:22;12.90;;;12.00;;
4057;SDS011;2044;48.692;9.020;2022-07-23T14:31:50;13.47;;;12.23;;
4057;SDS011;2044;48.692;9.020;2022-07-23T14:34:16;12.80;;;11.70;;
4057;SDS011;2044;48.692;9.020;2022-07-23T14:36:43;12.80;;;11.80;;
4057;SDS011;2044;48.692;9.020;2022-07-23T14:39:10;13.10;;;12.00;;
4057;SDS011;2044;48.692;9.020;2022-07-23T14:41:37;13.17;;;12.20;;
4057;SDS011;2044;48.692;9.020;2022-07-23T14:44:04;12.97;;;11.97;;
4057;SDS011;2044;48.692;9.020;2022-07-23T14:46:31;13.63;;;12.43;;
4057;SDS011;2044;48.692;9.020;2022-07-23T14:48:59;12.60;;;11.80;;
4057;SDS011;2044;48.692;9.020;2022-07-23T14:51:26;12.67;;;11.73;;
4057;SDS011;2044;48.692;9.020;2022-07-23T14:53:53;13.10;;;11.80;;
4057;SDS011;2044;48.692;9.020;2022-07-23T14:56:19;13.47;;;12.27;;
4057;SDS011;2044;48.692;9.020;2022-07-23T14:58:46;12.53;;;11.60;;
4057;SDS011;2044;48.692;9.020;2022-07-23T15:01:13;12.30;;;11.50;;
4057;SDS011;2044;48.692;9.020;2022-07-23T15:03:43;13.47;;;12.20;;
4057;SDS011;2044;48.692;9.020;2022-07-23T15:06:11;13.40;;;12.07;;
4057;SDS011;2044;48.692;9.020;2022-07-23T15:08:37;13.43;;;12.43;;
4057;SDS011;2044;48.692;9.020;2022-07-23T15:11:04;13.07;;;11.67;;
4057;SDS011;2044;48.692;9.020;2022-07-23T15:13:34;12.63;;;11.63;;
4057;SDS011;2044;48.692;9.020;2022-07-23T15:16:01;12.93;;;11.93;;
4057;SDS011;2044;48.692;9.020;2022-07-23T15:18:28;12.37;;;11.60;;